Time;durP1;ratioP1;P1;durP2;ratioP2;P2;SDS_P1;SDS_P2;PMS_P1;PMS_P2;Temp;Humidity;BMP_temperature;BMP_pressure;BME280_temperature;BME280_humidity;BME280_pressure;Samples;Min_cycle;Max_cycle;Signal;HPM_P1;HPM_P2
2022/06/10 00:00:29;;;;;;;9.77;2.40;;;;;;;10.52;100.00;99271.50;5094910;28;20240;-51
2022/06/10 00:02:57;;;;;;;7.30;2.30;;;;;;;10.45;100.00;99273.81;5094549;28;20679;-52
2022/06/10 00:05:26;;;;;;;8.20;2.70;;;;;;;10.46;100.00;99268.47;5094738;28;20179;-50
2022/06/10 00:07:53;;;;;;;5.90;2.90;;;;;;;10.56;100.00;99270.28;5094848;28;20225;-51
2022/06/10 00:10:25;;;;;;;9.73;2.50;;;;;;;10.55;100.00;99273.84;5094946;28;20196;-53
2022/06/10 00:12:53;;;;;;;11.63;2.70;;;;;;;10.52;100.00;99267.09;5094234;28;20194;-53
2022/06/10 00:15:20;;;;;;;7.70;2.83;;;;;;;10.50;100.00;99270.81;5096038;28;20191;-52
2022/06/10 00:17:47;;;;;;;6.87;2.70;;;;;;;10.59;100.00;99272.63;5095058;28;20210;-50
2022/06/10 00:20:17;;;;;;;7.80;2.30;;;;;;;10.52;100.00;99268.91;5095393;28;20300;-50
2022/06/10 00:22:44;;;;;;;7.47;2.47;;;;;;;10.46;100.00;99273.69;5094278;28;20182;-50
2022/06/10 00:25:11;;;;;;;6.87;2.40;;;;;;;10.40;100.00;99273.38;5094560;28;20189;-51
2022/06/10 00:27:40;;;;;;;6.63;2.13;;;;;;;10.37;100.00;99273.63;5094082;28;20190;-50
2022/06/10 00:30:09;;;;;;;7.13;2.60;;;;;;;10.24;100.00;99277.28;5093458;28;20777;-52
2022/06/10 00:32:36;;;;;;;8.13;3.13;;;;;;;10.16;100.00;99279.72;5094858;28;20739;-50
2022/06/10 00:35:04;;;;;;;5.17;2.50;;;;;;;10.13;100.00;99283.44;5094577;28;20193;-50
2022/06/10 00:37:32;;;;;;;6.57;2.77;;;;;;;10.16;100.00;99284.94;5093884;28;20803;-51
2022/06/10 00:40:00;;;;;;;7.60;3.03;;;;;;;10.14;100.00;99289.47;5092838;28;20201;-52
2022/06/10 00:42:27;;;;;;;7.97;2.90;;;;;;;10.12;100.00;99276.56;5094240;28;20196;-50
2022/06/10 00:44:55;;;;;;;7.37;2.50;;;;;;;10.12;100.00;99283.56;5093365;28;20673;-53
2022/06/10 00:47:27;;;;;;;11.50;2.40;;;;;;;10.10;100.00;99275.03;5093789;28;20188;-52
2022/06/10 00:49:59;;;;;;;11.37;3.00;;;;;;;10.05;100.00;99275.44;5094195;28;20185;-53
2022/06/10 00:52:41;;;;;;;12.33;3.30;;;;;;;10.02;100.00;99278.31;5094078;28;20206;-50
2022/06/10 00:55:09;;;;;;;7.67;2.77;;;;;;;10.00;100.00;99278.47;5093167;28;20186;-52
2022/06/10 00:57:41;;;;;;;9.60;2.50;;;;;;;9.95;100.00;99271.97;5094451;28;20285;-53
2022/06/10 01:00:13;;;;;;;7.53;2.70;;;;;;;9.94;100.00;99276.38;5095144;28;20251;-53
2022/06/10 01:02:41;;;;;;;5.70;3.07;;;;;;;9.93;100.00;99277.34;5093476;28;20186;-50
2022/06/10 01:05:12;;;;;;;5.07;2.23;;;;;;;9.92;100.00;99275.69;5094063;28;20208;-53
2022/06/10 01:07:49;;;;;;;11.57;3.07;;;;;;;9.94;100.00;99276.38;5093701;28;20201;-50
2022/06/10 01:10:43;;;;;;;6.00;2.30;;;;;;;9.85;100.00;99275.34;5094467;28;20216;-53
2022/06/10 01:13:21;;;;;;;7.43;2.50;;;;;;;9.82;100.00;99278.22;5093420;28;20185;-53
2022/06/10 01:15:57;;;;;;;8.00;2.60;;;;;;;9.73;100.00;99272.03;5093651;28;20664;-52
2022/06/10 01:18:40;;;;;;;9.37;2.50;;;;;;;9.73;100.00;99277.22;5093480;28;20682;-53
2022/06/10 01:21:37;;;;;;;6.43;2.63;;;;;;;9.70;100.00;99274.88;5093061;28;20205;-51
2022/06/10 01:24:28;;;;;;;6.43;2.67;;;;;;;9.72;100.00;99280.78;5093993;28;20199;-51
2022/06/10 01:27:49;;;;;;;6.67;2.50;;;;;;;9.81;100.00;99279.19;5093542;28;20284;-51
2022/06/10 01:30:21;;;;;;;8.90;2.70;;;;;;;9.77;100.00;99276.97;5060719;28;20217;-52
2022/06/10 01:33:00;;;;;;;8.07;2.90;;;;;;;9.73;100.00;99276.38;5093806;28;20215;-51
2022/06/10 01:35:33;;;;;;;5.90;2.80;;;;;;;9.73;100.00;99279.84;5093807;28;20209;-50
2022/06/10 01:38:07;;;;;;;9.77;2.50;;;;;;;9.70;100.00;99284.47;5093449;28;20692;-50
2022/06/10 01:40:44;;;;;;;6.70;2.53;;;;;;;9.68;100.00;99283.78;5092265;28;20197;-50
2022/06/10 01:43:25;;;;;;;5.47;2.90;;;;;;;9.65;100.00;99284.88;5093748;28;20218;-50
2022/06/10 01:46:01;;;;;;;6.37;2.80;;;;;;;9.63;100.00;99278.13;5093883;28;20189;-50
2022/06/10 01:48:39;;;;;;;5.93;2.77;;;;;;;9.69;100.00;99280.22;5093475;28;20657;-51
2022/06/10 01:51:12;;;;;;;7.73;2.83;;;;;;;9.65;100.00;99281.41;5093728;28;20621;-51
2022/06/10 01:53:44;;;;;;;7.80;2.80;;;;;;;9.64;100.00;99271.94;5093566;28;20223;-50
2022/06/10 01:56:16;;;;;;;4.87;2.40;;;;;;;9.77;100.00;99282.19;5094042;28;20283;-51
2022/06/10 01:58:46;;;;;;;7.97;3.00;;;;;;;9.80;100.00;99281.94;5093202;28;20205;-51
2022/06/10 02:01:18;;;;;;;7.33;2.57;;;;;;;9.79;100.00;99283.69;5093242;28;20276;-52
2022/06/10 02:03:51;;;;;;;11.17;3.67;;;;;;;9.74;100.00;99285.88;5093510;28;20184;-51
2022/06/10 02:06:25;;;;;;;4.30;2.40;;;;;;;9.74;100.00;99280.66;5093333;28;20252;-50
2022/06/10 02:09:01;;;;;;;4.80;2.50;;;;;;;9.68;100.00;99286.38;5092857;28;20214;-51
2022/06/10 02:11:29;;;;;;;8.87;2.77;;;;;;;9.63;100.00;99280.72;5093143;28;20635;-50
2022/06/10 02:14:00;;;;;;;7.97;2.70;;;;;;;9.65;100.00;99289.25;5093079;28;20204;-50
2022/06/10 02:16:32;;;;;;;7.47;2.80;;;;;;;9.56;100.00;99281.22;5093234;28;20192;-50
2022/06/10 02:19:06;;;;;;;4.40;2.40;;;;;;;9.61;100.00;99286.06;5092931;28;20212;-51
2022/06/10 02:21:43;;;;;;;5.70;2.63;;;;;;;9.51;100.00;99290.41;5092996;28;20200;-51
2022/06/10 02:24:15;;;;;;;10.77;3.47;;;;;;;9.51;100.00;99287.81;5093424;28;20216;-51
2022/06/10 02:26:44;;;;;;;6.90;2.43;;;;;;;9.59;100.00;99288.00;5092930;28;20179;-53
2022/06/10 02:29:17;;;;;;;9.00;3.00;;;;;;;9.57;100.00;99295.09;5093660;28;20213;-53
2022/06/10 02:31:49;;;;;;;5.10;2.70;;;;;;;9.59;100.00;99293.19;5094020;28;20198;-52
2022/06/10 02:34:17;;;;;;;9.60;3.10;;;;;;;9.51;100.00;99296.47;5097742;28;20192;-52
2022/06/10 02:36:51;;;;;;;3.97;2.50;;;;;;;9.50;100.00;99300.03;5096415;28;20201;-51
2022/06/10 02:39:24;;;;;;;8.70;3.10;;;;;;;9.45;100.00;99299.56;5096737;28;20216;-51
2022/06/10 02:41:59;;;;;;;4.80;2.73;;;;;;;9.35;100.00;99303.88;5096725;28;20238;-50
2022/06/10 02:44:35;;;;;;;9.07;2.57;;;;;;;9.33;100.00;99301.38;5096068;28;20191;-50
2022/06/10 02:47:11;;;;;;;7.10;3.33;;;;;;;9.31;100.00;99308.50;5095389;28;20295;-53
2022/06/10 02:49:39;;;;;;;9.67;2.80;;;;;;;9.30;100.00;99307.69;5096371;28;20185;-53
2022/06/10 02:52:10;;;;;;;15.83;4.43;;;;;;;9.26;100.00;99310.66;5096399;28;20751;-50
2022/06/10 02:54:40;;;;;;;5.60;2.60;;;;;;;9.31;100.00;99313.72;5096286;28;20664;-53
2022/06/10 02:57:13;;;;;;;3.97;2.60;;;;;;;9.32;100.00;99310.16;5095939;28;20212;-53
2022/06/10 03:02:36;;;;;;;10.90;3.33;;;;;;;9.41;100.00;99309.41;5095295;28;20676;-51
2022/06/10 03:05:17;;;;;;;7.53;3.07;;;;;;;9.40;100.00;99319.97;5096222;28;20242;-52
2022/06/10 03:07:58;;;;;;;6.33;3.40;;;;;;;9.37;100.00;99322.81;5096172;28;20304;-50
2022/06/10 03:10:38;;;;;;;5.47;2.70;;;;;;;9.35;100.00;99319.53;5096090;28;20193;-51
2022/06/10 03:13:27;;;;;;;8.87;3.13;;;;;;;9.28;100.00;99325.22;5096131;28;20216;-50
2022/06/10 03:16:05;;;;;;;8.43;2.70;;;;;;;9.29;100.00;99324.28;5096050;28;20587;-51
2022/06/10 03:18:47;;;;;;;7.23;2.83;;;;;;;9.32;100.00;99324.97;5094568;28;20232;-51
2022/06/10 03:21:26;;;;;;;9.47;3.10;;;;;;;9.28;100.00;99332.19;5096056;28;20263;-51
2022/06/10 03:24:06;;;;;;;6.67;2.80;;;;;;;9.33;100.00;99324.84;5096526;28;20260;-50
2022/06/10 03:29:54;;;;;;;11.43;3.13;;;;;;;9.39;100.00;99332.16;5058263;28;20236;-50
2022/06/10 03:32:26;;;;;;;4.17;2.60;;;;;;;9.34;100.00;99333.50;5095901;28;20194;-51
2022/06/10 03:34:58;;;;;;;9.63;3.00;;;;;;;9.31;100.00;99326.75;5095867;28;20661;-50
2022/06/10 03:37:27;;;;;;;9.93;2.70;;;;;;;9.40;100.00;99339.03;5096606;28;20197;-50
2022/06/10 03:39:57;;;;;;;7.00;3.10;;;;;;;9.53;100.00;99346.69;5096648;28;20199;-52
2022/06/10 03:42:29;;;;;;;7.33;2.87;;;;;;;9.59;100.00;99353.16;5095899;28;20719;-51
2022/06/10 03:44:59;;;;;;;8.43;3.27;;;;;;;9.64;100.00;99348.38;5095059;28;20226;-50
2022/06/10 03:47:29;;;;;;;9.93;3.33;;;;;;;9.71;100.00;99351.28;5095345;28;20198;-50
2022/06/10 03:49:59;;;;;;;9.03;2.83;;;;;;;9.74;100.00;99351.03;5094155;28;20222;-51
2022/06/10 03:52:31;;;;;;;7.93;2.93;;;;;;;9.82;100.00;99355.63;5095460;28;20548;-50
2022/06/10 03:55:00;;;;;;;6.83;3.23;;;;;;;9.78;100.00;99352.44;5095382;28;20708;-50
2022/06/10 03:57:27;;;;;;;7.27;3.13;;;;;;;9.88;100.00;99350.72;5095445;28;20209;-52
2022/06/10 03:59:55;;;;;;;9.00;3.53;;;;;;;9.89;100.00;99351.56;5095043;28;20194;-52
2022/06/10 04:02:26;;;;;;;6.43;2.70;;;;;;;9.96;100.00;99352.69;5094819;28;20192;-52
2022/06/10 04:04:53;;;;;;;5.77;2.30;;;;;;;10.00;100.00;99363.69;5094676;28;20189;-52
2022/06/10 04:07:21;;;;;;;5.20;2.67;;;;;;;9.94;100.00;99365.03;5095380;28;20181;-52
2022/06/10 04:09:58;;;;;;;6.20;2.60;;;;;;;9.95;100.00;99368.47;5095001;28;20535;-53
2022/06/10 04:12:26;;;;;;;9.30;2.60;;;;;;;9.93;100.00;99371.22;5094097;28;20273;-52
2022/06/10 04:14:54;;;;;;;7.97;2.40;;;;;;;9.99;100.00;99368.09;5095106;28;20586;-52
2022/06/10 04:17:21;;;;;;;6.17;2.80;;;;;;;9.96;100.00;99365.75;5095479;28;20184;-52
2022/06/10 04:19:49;;;;;;;5.67;2.27;;;;;;;9.98;100.00;99370.81;5095622;28;20197;-55
2022/06/10 04:22:17;;;;;;;7.10;2.57;;;;;;;9.92;100.00;99373.94;5094336;28;20196;-55
2022/06/10 04:24:44;;;;;;;11.57;2.47;;;;;;;9.91;100.00;99378.34;5094852;28;20192;-52
2022/06/10 04:27:18;;;;;;;7.93;3.03;;;;;;;9.92;100.00;99379.16;5094350;28;20186;-52
2022/06/10 04:29:46;;;;;;;5.90;2.57;;;;;;;9.88;100.00;99374.19;5094323;28;20223;-52
2022/06/10 04:32:14;;;;;;;8.60;3.37;;;;;;;9.87;100.00;99375.16;5094360;28;20206;-52
2022/06/10 04:34:41;;;;;;;7.90;2.37;;;;;;;9.91;100.00;99373.13;5094946;28;20183;-52
2022/06/10 04:37:11;;;;;;;6.73;2.40;;;;;;;9.93;100.00;99380.81;5094608;28;20332;-52
2022/06/10 04:39:38;;;;;;;6.33;3.50;;;;;;;9.97;100.00;99390.03;5093159;28;20554;-53
2022/06/10 04:42:06;;;;;;;5.60;2.93;;;;;;;9.98;100.00;99386.47;5093421;28;20238;-52
2022/06/10 04:44:35;;;;;;;12.20;4.23;;;;;;;10.01;100.00;99387.06;5094416;28;20196;-53
2022/06/10 04:47:03;;;;;;;5.23;2.50;;;;;;;10.01;100.00;99384.44;5094346;28;20182;-53
2022/06/10 04:49:30;;;;;;;6.20;3.37;;;;;;;10.02;100.00;99391.31;5093974;28;20205;-53
2022/06/10 04:51:57;;;;;;;9.50;2.77;;;;;;;10.07;100.00;99396.13;5093894;28;20193;-52
2022/06/10 04:54:24;;;;;;;4.87;2.30;;;;;;;10.12;100.00;99391.34;5094007;28;20283;-54
2022/06/10 04:56:51;;;;;;;6.50;2.77;;;;;;;10.14;100.00;99391.22;5092769;28;20186;-52
2022/06/10 04:59:19;;;;;;;5.40;2.83;;;;;;;10.27;100.00;99396.25;5093551;28;20566;-52
2022/06/10 05:01:47;;;;;;;7.23;2.73;;;;;;;10.27;100.00;99394.44;5093619;28;20504;-52
2022/06/10 05:04:32;;;;;;;8.73;2.87;;;;;;;10.29;100.00;99402.16;5094314;28;20246;-52
2022/06/10 05:07:00;;;;;;;7.90;2.60;;;;;;;10.36;100.00;99399.84;5093256;28;20634;-52
2022/06/10 05:09:27;;;;;;;6.13;2.50;;;;;;;10.39;100.00;99397.84;5092967;28;20551;-52
2022/06/10 05:11:55;;;;;;;5.90;2.80;;;;;;;10.47;100.00;99405.00;5092334;28;20746;-52
2022/06/10 05:14:22;;;;;;;7.93;2.70;;;;;;;10.50;100.00;99409.16;5091977;28;20201;-52
2022/06/10 05:16:51;;;;;;;5.97;2.73;;;;;;;10.56;100.00;99404.22;5092884;28;20262;-53
2022/06/10 05:19:19;;;;;;;6.63;2.23;;;;;;;10.61;100.00;99401.19;5092892;28;20210;-52
2022/06/10 05:21:46;;;;;;;5.00;2.63;;;;;;;10.68;100.00;99404.94;5092988;28;20178;-52
2022/06/10 05:24:14;;;;;;;3.27;2.50;;;;;;;10.74;100.00;99412.25;5093113;28;20194;-52
2022/06/10 05:26:41;;;;;;;7.73;2.50;;;;;;;10.82;100.00;99409.00;5093210;28;20195;-52
2022/06/10 05:29:08;;;;;;;8.60;2.63;;;;;;;10.88;100.00;99418.06;5092899;28;20695;-54
2022/06/10 05:31:35;;;;;;;11.23;2.70;;;;;;;10.96;100.00;99417.41;5093003;28;20182;-54
2022/06/10 05:37:00;;;;;;;5.80;2.63;;;;;;;11.13;100.00;99418.53;5050143;28;20198;-54
2022/06/10 05:39:28;;;;;;;8.43;2.50;;;;;;;11.35;100.00;99423.53;5076894;28;20259;-52
2022/06/10 05:42:14;;;;;;;6.50;2.80;;;;;;;11.91;100.00;99428.19;5093359;28;20673;-55
2022/06/10 05:44:44;;;;;;;11.73;2.57;;;;;;;12.32;100.00;99423.59;5093236;28;20259;-52
2022/06/10 05:47:14;;;;;;;7.53;2.47;;;;;;;12.61;100.00;99429.72;5093100;28;20547;-53
2022/06/10 05:49:48;;;;;;;8.37;2.40;;;;;;;12.85;97.28;99424.75;5092109;28;20200;-53
2022/06/10 05:52:18;;;;;;;4.87;2.50;;;;;;;13.07;95.84;99432.38;5092314;28;20195;-53
2022/06/10 05:54:48;;;;;;;5.07;2.03;;;;;;;13.27;95.22;99438.31;5091362;28;20197;-54
2022/06/10 05:57:17;;;;;;;4.23;1.93;;;;;;;13.40;93.35;99438.78;5092632;28;20191;-52
2022/06/10 05:59:47;;;;;;;7.07;2.27;;;;;;;13.60;92.43;99443.06;5092016;28;20517;-54
2022/06/10 06:02:15;;;;;;;6.90;2.10;;;;;;;13.75;91.33;99435.50;5091070;28;20305;-52
2022/06/10 06:04:44;;;;;;;8.43;2.17;;;;;;;13.86;89.11;99440.50;5092492;28;20245;-53
2022/06/10 06:07:15;;;;;;;8.70;2.30;;;;;;;13.88;89.67;99439.38;5092690;28;20651;-54
2022/06/10 06:09:43;;;;;;;5.17;1.87;;;;;;;14.13;89.48;99444.81;5096212;28;20192;-52
2022/06/10 06:12:10;;;;;;;5.60;2.30;;;;;;;14.35;87.67;99440.00;5095092;28;20248;-52
2022/06/10 06:14:39;;;;;;;4.17;2.03;;;;;;;14.47;87.67;99433.50;5095999;28;20215;-53
2022/06/10 06:17:06;;;;;;;7.00;2.50;;;;;;;14.58;85.92;99435.06;5096052;28;20184;-53
2022/06/10 06:19:35;;;;;;;6.53;2.00;;;;;;;14.79;87.26;99443.53;5096026;28;20183;-53
2022/06/10 06:22:04;;;;;;;5.77;1.97;;;;;;;15.00;86.95;99443.13;5096239;28;20198;-52
2022/06/10 06:24:33;;;;;;;5.10;1.87;;;;;;;15.11;84.05;99437.56;5096158;28;20183;-53
2022/06/10 06:27:01;;;;;;;6.57;2.03;;;;;;;15.21;83.99;99447.97;5096160;28;20188;-52
2022/06/10 06:29:29;;;;;;;5.67;2.03;;;;;;;15.43;84.11;99451.78;5095522;28;20227;-52
2022/06/10 06:31:57;;;;;;;11.13;2.83;;;;;;;15.55;82.29;99449.66;5095947;28;20196;-52
2022/06/10 06:34:25;;;;;;;9.07;1.93;;;;;;;15.66;82.88;99445.91;5095626;28;20216;-52
2022/06/10 06:36:55;;;;;;;6.43;2.03;;;;;;;15.76;81.70;99445.72;5095828;28;20188;-53
2022/06/10 06:39:26;;;;;;;7.90;2.03;;;;;;;15.82;82.02;99442.44;5095216;28;20220;-52
2022/06/10 06:41:55;;;;;;;5.13;1.90;;;;;;;15.92;81.55;99442.28;5095760;28;20268;-52
2022/06/10 06:44:32;;;;;;;8.97;1.80;;;;;;;15.93;78.69;99446.56;5095559;28;20180;-52
2022/06/10 06:47:17;;;;;;;5.53;2.00;;;;;;;16.14;80.51;99453.13;5096051;28;20315;-55
2022/06/10 06:49:44;;;;;;;4.13;1.90;;;;;;;16.33;81.22;99447.50;5095305;28;20187;-55
2022/06/10 06:52:12;;;;;;;5.37;2.27;;;;;;;16.35;78.05;99445.53;5095527;28;20182;-55
2022/06/10 06:54:41;;;;;;;6.67;2.20;;;;;;;16.30;77.48;99445.22;5095240;28;20216;-55
2022/06/10 06:57:08;;;;;;;7.50;1.97;;;;;;;16.47;76.54;99453.06;5095454;28;20234;-54
2022/06/10 06:59:37;;;;;;;10.23;2.27;;;;;;;16.63;78.26;99453.03;5095032;28;20186;-52
2022/06/10 07:02:05;;;;;;;5.97;2.80;;;;;;;16.60;72.30;99449.91;5095468;28;20182;-52
2022/06/10 07:04:32;;;;;;;5.93;2.23;;;;;;;16.78;73.04;99454.97;5095402;28;20179;-54
2022/06/10 07:06:59;;;;;;;4.07;1.83;;;;;;;16.80;74.06;99458.25;5095350;28;20189;-52
2022/06/10 07:09:27;;;;;;;4.57;1.93;;;;;;;16.90;69.79;99453.59;5094747;28;20206;-52
2022/06/10 07:11:56;;;;;;;5.87;2.13;;;;;;;16.70;68.21;99462.91;5095324;28;20219;-52
2022/06/10 07:14:24;;;;;;;6.20;2.27;;;;;;;16.83;69.40;99457.91;5094642;28;20213;-52
2022/06/10 07:16:52;;;;;;;7.37;2.83;;;;;;;17.02;68.74;99458.50;5094859;28;20635;-54
2022/06/10 07:19:21;;;;;;;9.23;2.73;;;;;;;16.97;67.83;99457.19;5094177;28;20305;-52
2022/06/10 07:21:48;;;;;;;4.77;2.40;;;;;;;16.88;65.96;99452.94;5094819;28;20182;-52
2022/06/10 07:24:16;;;;;;;5.70;2.27;;;;;;;16.91;67.40;99457.03;5094862;28;20275;-53
2022/06/10 07:26:44;;;;;;;7.97;2.43;;;;;;;17.22;69.00;99461.53;5094698;28;20186;-52
2022/06/10 07:29:13;;;;;;;9.77;2.20;;;;;;;17.35;66.81;99458.31;5094348;28;20294;-54
2022/06/10 07:31:41;;;;;;;7.93;2.17;;;;;;;17.44;67.13;99445.91;5095009;28;20191;-52
2022/06/10 07:34:10;;;;;;;7.57;2.37;;;;;;;17.47;65.25;99454.28;5095049;28;20252;-55
2022/06/10 07:36:38;;;;;;;8.17;2.33;;;;;;;17.64;64.84;99457.63;5094636;28;20708;-54
2022/06/10 07:39:05;;;;;;;7.63;2.00;;;;;;;17.57;65.85;99451.41;5094455;28;20744;-52
2022/06/10 07:44:20;;;;;;;6.83;2.03;;;;;;;17.45;66.31;99458.13;5094557;28;20220;-52
2022/06/10 07:46:48;;;;;;;4.80;2.30;;;;;;;17.56;64.56;99453.25;5094271;28;20198;-52
2022/06/10 07:49:15;;;;;;;6.00;2.13;;;;;;;17.61;62.09;99447.41;5093877;28;20218;-53
2022/06/10 07:51:43;;;;;;;8.40;2.33;;;;;;;17.47;63.53;99450.84;5094547;28;20194;-53
2022/06/10 07:54:10;;;;;;;8.33;2.50;;;;;;;17.60;63.19;99447.59;5094224;28;20305;-52
2022/06/10 07:56:38;;;;;;;5.57;2.00;;;;;;;17.51;64.02;99452.94;5093113;28;20258;-53
2022/06/10 07:59:05;;;;;;;4.90;2.10;;;;;;;17.47;62.08;99450.84;5093784;28;20205;-52
2022/06/10 08:01:35;;;;;;;7.97;2.10;;;;;;;17.69;62.81;99443.91;5093938;28;20193;-52
2022/06/10 08:04:06;;;;;;;6.13;2.30;;;;;;;17.70;62.31;99448.19;5092904;28;20198;-52
2022/06/10 08:06:35;;;;;;;8.67;2.40;;;;;;;17.89;61.62;99449.50;5093746;28;20193;-52
2022/06/10 08:09:02;;;;;;;10.53;2.30;;;;;;;17.93;61.08;99448.16;5093394;28;20262;-52
2022/06/10 08:11:30;;;;;;;4.70;2.00;;;;;;;17.82;60.02;99449.41;5093792;28;20193;-52
2022/06/10 08:13:58;;;;;;;7.40;2.20;;;;;;;17.90;62.25;99447.72;5094185;28;20220;-53
2022/06/10 08:16:25;;;;;;;4.00;1.70;;;;;;;18.04;62.37;99449.56;5092501;28;20222;-52
2022/06/10 08:18:54;;;;;;;7.53;1.93;;;;;;;17.91;60.46;99452.81;5093442;28;20214;-52
2022/06/10 08:24:12;;;;;;;6.20;1.70;;;;;;;18.10;61.15;99459.41;5093727;28;20210;-52
2022/06/10 08:26:40;;;;;;;7.40;2.17;;;;;;;18.02;60.83;99458.69;5094408;28;20539;-54
2022/06/10 08:29:07;;;;;;;6.30;1.93;;;;;;;18.21;59.50;99452.91;5093747;28;20594;-54
2022/06/10 08:31:35;;;;;;;7.77;1.87;;;;;;;18.32;59.12;99453.47;5094045;28;20228;-54
2022/06/10 08:34:04;;;;;;;9.97;2.40;;;;;;;18.33;57.84;99447.16;5093958;28;20198;-55
2022/06/10 08:36:33;;;;;;;7.43;1.90;;;;;;;18.47;57.84;99450.81;5094045;28;20551;-55
2022/06/10 08:39:01;;;;;;;10.57;1.90;;;;;;;18.56;58.13;99453.16;5093549;28;20298;-54
2022/06/10 08:41:35;;;;;;;12.20;2.10;;;;;;;18.62;56.54;99456.09;5093609;28;20550;-55
2022/06/10 08:44:12;;;;;;;7.17;1.80;;;;;;;18.53;56.79;99458.00;5094057;28;20643;-55
2022/06/10 08:47:27;;;;;;;6.37;2.67;;;;;;;18.65;60.15;99456.56;5094074;28;20183;-55
2022/06/10 08:50:27;;;;;;;11.23;2.30;;;;;;;18.63;56.16;99450.63;5094071;28;20674;-55
2022/06/10 08:53:11;;;;;;;5.47;1.80;;;;;;;18.57;56.43;99441.59;5094101;28;20229;-55
2022/06/10 08:55:46;;;;;;;5.23;1.80;;;;;;;18.71;54.91;99439.97;5093214;28;20656;-52
2022/06/10 08:58:18;;;;;;;7.93;1.50;;;;;;;18.87;55.64;99448.69;5092649;28;20286;-54
2022/06/10 09:00:57;;;;;;;6.57;1.73;;;;;;;19.08;55.65;99453.25;5093222;28;20183;-52
2022/06/10 09:03:34;;;;;;;8.07;2.00;;;;;;;19.02;54.20;99449.53;5093061;28;20213;-52
2022/06/10 09:06:10;;;;;;;7.00;1.97;;;;;;;18.89;52.62;99439.56;5091717;28;20199;-52
2022/06/10 09:08:40;;;;;;;4.33;1.60;;;;;;;18.98;53.65;99440.31;5092580;28;20292;-54
2022/06/10 09:11:17;;;;;;;5.63;1.80;;;;;;;18.88;55.43;99443.22;5093194;28;20180;-53
2022/06/10 09:13:51;;;;;;;6.40;1.93;;;;;;;18.89;55.58;99441.41;5092498;28;20297;-52
2022/06/10 09:16:24;;;;;;;5.03;1.90;;;;;;;18.97;55.59;99446.63;5091288;28;20660;-52
2022/06/10 09:19:04;;;;;;;5.20;1.77;;;;;;;19.15;55.67;99440.91;5092678;28;20202;-54
2022/06/10 09:21:47;;;;;;;5.60;2.10;;;;;;;19.08;52.88;99439.22;5092889;28;20190;-52
2022/06/10 09:24:25;;;;;;;4.83;1.60;;;;;;;19.06;52.32;99441.22;5093119;28;20198;-52
2022/06/10 09:27:02;;;;;;;6.50;1.67;;;;;;;19.23;53.29;99439.97;5092452;28;20211;-52
2022/06/10 09:29:29;;;;;;;5.10;1.60;;;;;;;19.38;53.03;99444.38;5092261;28;20678;-52
2022/06/10 09:32:06;;;;;;;3.30;1.57;;;;;;;19.43;52.52;99447.28;5092783;28;20178;-52
2022/06/10 09:34:46;;;;;;;7.77;1.50;;;;;;;19.47;52.82;99448.56;5092490;28;20226;-53
2022/06/10 09:37:22;;;;;;;8.70;1.60;;;;;;;19.50;53.05;99445.53;5092458;28;20587;-53
2022/06/10 09:43:26;;;;;;;6.23;1.77;;;;;;;19.83;51.47;99445.03;5092138;28;20266;-52
2022/06/10 09:46:06;;;;;;;7.80;1.80;;;;;;;19.82;50.57;99446.03;5091270;28;20212;-52
2022/06/10 09:48:49;;;;;;;5.90;1.77;;;;;;;19.88;50.48;99444.44;5092319;28;20207;-52
2022/06/10 09:51:25;;;;;;;7.73;1.60;;;;;;;19.95;48.95;99445.34;5092544;28;20724;-54
2022/06/10 09:54:09;;;;;;;6.07;1.73;;;;;;;19.72;51.49;99450.81;5091062;28;20220;-54
2022/06/10 09:56:54;;;;;;;6.40;1.60;;;;;;;19.83;49.99;99449.47;5092360;28;20180;-52
2022/06/10 09:59:29;;;;;;;7.23;1.83;;;;;;;19.82;50.72;99451.31;5091918;28;20212;-53
2022/06/10 10:02:10;;;;;;;4.60;1.70;;;;;;;20.04;49.23;99443.38;5092554;28;20188;-52
2022/06/10 10:04:57;;;;;;;4.70;1.60;;;;;;;20.08;49.08;99435.84;5091207;28;20207;-52
2022/06/10 10:07:29;;;;;;;8.80;1.70;;;;;;;20.16;48.67;99433.06;5092362;28;20250;-53
2022/06/10 10:10:06;;;;;;;4.47;1.40;;;;;;;20.11;50.98;99435.47;5092668;28;20266;-52
2022/06/10 10:12:44;;;;;;;6.03;1.50;;;;;;;20.13;49.08;99428.97;5092606;28;20180;-52
2022/06/10 10:15:21;;;;;;;4.10;1.53;;;;;;;20.31;50.21;99433.75;5092365;28;20285;-52
2022/06/10 10:18:10;;;;;;;5.70;1.30;;;;;;;20.25;48.06;99431.06;5091890;28;20670;-53
2022/06/10 10:20:57;;;;;;;6.37;1.33;;;;;;;20.27;49.39;99437.81;5092034;28;20440;-53
2022/06/10 10:23:31;;;;;;;6.43;1.40;;;;;;;20.36;49.22;99430.50;5092361;28;20185;-54
2022/06/10 10:26:01;;;;;;;4.83;1.57;;;;;;;20.38;47.10;99427.69;5092222;28;20636;-54
2022/06/10 10:28:31;;;;;;;7.37;1.53;;;;;;;20.42;48.39;99427.09;5091720;28;20614;-53
2022/06/10 10:31:09;;;;;;;8.73;1.90;;;;;;;20.54;48.25;99418.59;5092137;28;20211;-53
2022/06/10 10:33:36;;;;;;;8.17;1.90;;;;;;;20.64;50.25;99421.69;5092034;28;20194;-54
2022/06/10 10:36:11;;;;;;;6.70;1.50;;;;;;;20.69;46.87;99427.22;5092283;28;20213;-52
2022/06/10 10:38:43;;;;;;;4.73;1.50;;;;;;;20.69;46.54;99429.88;5091718;28;20218;-53
2022/06/10 10:41:32;;;;;;;4.80;1.60;;;;;;;20.58;46.83;99423.31;5092390;28;20723;-53
2022/06/10 10:44:05;;;;;;;4.70;1.40;;;;;;;20.73;50.98;99424.97;5092519;28;20555;-53
2022/06/10 10:46:37;;;;;;;4.53;1.60;;;;;;;20.89;48.95;99422.03;5093025;28;20552;-55
2022/06/10 10:49:21;;;;;;;4.77;1.53;;;;;;;21.06;49.51;99425.16;5090692;28;20774;-52
2022/06/10 10:51:50;;;;;;;3.73;1.40;;;;;;;21.36;48.00;99416.81;5091183;28;20191;-53
2022/06/10 10:54:22;;;;;;;7.77;1.40;;;;;;;21.48;46.27;99418.88;5092474;28;20215;-52
2022/06/10 10:56:53;;;;;;;4.57;1.40;;;;;;;21.33;48.08;99414.56;5096200;28;20274;-53
2022/06/10 10:59:33;;;;;;;7.43;1.43;;;;;;;21.29;45.45;99421.31;5095627;28;20212;-52
2022/06/10 11:02:00;;;;;;;3.17;1.30;;;;;;;21.50;45.72;99417.69;5095641;28;20221;-54
2022/06/10 11:04:31;;;;;;;5.10;1.40;;;;;;;21.58;45.92;99416.66;5095671;28;20704;-54
2022/06/10 11:07:01;;;;;;;7.40;1.50;;;;;;;21.53;44.64;99413.78;5094617;28;20199;-52
2022/06/10 11:09:29;;;;;;;3.67;1.30;;;;;;;21.61;44.80;99410.94;5095451;28;20209;-54
2022/06/10 11:12:02;;;;;;;7.50;1.67;;;;;;;21.56;44.65;99420.53;5095667;28;20186;-53
2022/06/10 11:14:33;;;;;;;3.10;1.10;;;;;;;21.65;46.02;99419.34;5095464;28;20651;-52
2022/06/10 11:17:19;;;;;;;6.23;1.43;;;;;;;21.66;44.95;99419.13;5095640;28;20182;-54
2022/06/10 11:19:51;;;;;;;4.37;1.40;;;;;;;21.61;44.77;99410.94;5095281;28;20202;-54
2022/06/10 11:22:32;;;;;;;7.30;1.23;;;;;;;21.81;45.17;99408.28;5094244;28;20262;-53
2022/06/10 11:25:24;;;;;;;5.40;1.40;;;;;;;22.02;45.79;99406.44;5094104;28;20501;-53
2022/06/10 11:28:06;;;;;;;6.43;1.30;;;;;;;22.20;43.65;99410.28;5095483;28;20594;-54
2022/06/10 11:30:42;;;;;;;7.43;1.60;;;;;;;21.76;42.84;99396.66;5096223;28;20189;-54
2022/06/10 11:33:21;;;;;;;3.50;1.30;;;;;;;22.08;44.44;99408.25;5095001;28;20192;-53
2022/06/10 11:36:11;;;;;;;4.70;1.30;;;;;;;22.14;44.27;99398.66;5094639;28;20201;-52
2022/06/10 11:38:49;;;;;;;6.83;2.00;;;;;;;22.09;44.16;99396.59;5094435;28;20211;-52
2022/06/10 11:41:24;;;;;;;5.67;1.47;;;;;;;22.17;43.16;99392.94;5093715;28;20669;-54
2022/06/10 11:44:00;;;;;;;7.50;1.47;;;;;;;22.10;43.64;99390.28;5094655;28;20185;-53
2022/06/10 11:46:34;;;;;;;6.37;1.50;;;;;;;22.33;43.15;99386.34;5094547;28;20549;-54
2022/06/10 11:49:11;;;;;;;6.30;1.70;;;;;;;22.35;43.05;99392.25;5093016;28;20220;-52
2022/06/10 11:51:45;;;;;;;5.90;1.20;;;;;;;22.36;43.55;99395.72;5094678;28;20166;-54
2022/06/10 11:54:26;;;;;;;3.00;1.30;;;;;;;22.45;43.34;99388.38;5094497;28;20183;-52
2022/06/10 11:59:59;;;;;;;5.23;1.40;;;;;;;22.59;43.21;99374.00;5094198;28;20204;-52
2022/06/10 12:02:33;;;;;;;6.10;1.60;;;;;;;22.68;41.81;99379.88;5094584;28;20183;-53
2022/06/10 12:05:11;;;;;;;5.30;1.50;;;;;;;22.45;41.37;99375.88;5093759;28;20207;-52
2022/06/10 12:07:45;;;;;;;4.50;1.20;;;;;;;22.66;45.22;99371.28;5093698;28;20290;-53
2022/06/10 12:10:17;;;;;;;7.80;1.40;;;;;;;22.89;44.31;99376.09;5094308;28;20557;-53
2022/06/10 12:12:45;;;;;;;5.43;1.30;;;;;;;22.88;43.20;99365.66;5094277;28;20188;-55
2022/06/10 12:15:21;;;;;;;7.73;1.70;;;;;;;23.11;42.57;99365.09;5094118;28;20215;-53
2022/06/10 12:17:52;;;;;;;5.17;1.40;;;;;;;23.18;41.47;99359.75;5093910;28;20241;-53